Time;durP1;ratioP1;P1;durP2;ratioP2;P2;SDS_P1;SDS_P2;PMS_P1;PMS_P2;Temp;Humidity;BMP_temperature;BMP_pressure;BME280_temperature;BME280_humidity;BME280_pressure;Samples;Min_cycle;Max_cycle;Signal;HPM_P1;HPM_P2
2024/02/20 00:02:32;;;;;;;133.63;89.03;;;;;;;;;;6313947;28;24430;-81
2024/02/20 00:05:34;;;;;;;131.57;86.83;;;;;;;;;;6318422;28;24479;-80
2024/02/20 00:08:35;;;;;;;130.50;87.00;;;;;;;;;;6317921;28;24433;-84
2024/02/20 00:11:37;;;;;;;129.38;86.28;;;;;;;;;;6316842;28;24417;-80
2024/02/20 00:14:39;;;;;;;129.07;86.95;;;;;;;;;;6315688;28;24430;-81
2024/02/20 00:17:41;;;;;;;127.68;84.57;;;;;;;;;;6313546;28;24421;-84
2024/02/20 00:20:44;;;;;;;124.85;84.43;;;;;;;;;;6315119;28;24499;-79
2024/02/20 00:23:45;;;;;;;122.88;81.68;;;;;;;;;;6314627;28;24419;-81
2024/02/20 00:26:47;;;;;;;128.18;82.90;;;;;;;;;;6313483;28;24415;-83
2024/02/20 00:29:50;;;;;;;123.87;82.37;;;;;;;;;;6316414;28;24445;-82
2024/02/20 00:32:52;;;;;;;118.40;79.65;;;;;;;;;;6315801;28;24445;-81
2024/02/20 00:35:53;;;;;;;123.00;80.78;;;;;;;;;;6314644;28;24426;-78
2024/02/20 00:38:55;;;;;;;125.45;84.30;;;;;;;;;;6313910;28;24498;-80
2024/02/20 00:41:56;;;;;;;123.82;82.65;;;;;;;;;;6315151;28;24468;-81
2024/02/20 00:45:01;;;;;;;119.90;80.73;;;;;;;;;;6315348;28;24499;-80
2024/02/20 00:48:03;;;;;;;119.55;80.22;;;;;;;;;;6313191;28;24434;-81
2024/02/20 00:51:04;;;;;;;122.75;82.00;;;;;;;;;;6314600;28;24414;-79
2024/02/20 00:54:06;;;;;;;120.05;79.60;;;;;;;;;;6315993;28;24617;-80
2024/02/20 00:57:08;;;;;;;116.83;78.27;;;;;;;;;;6319554;28;24540;-80
2024/02/20 01:00:13;;;;;;;118.27;78.00;;;;;;;;;;6314552;28;24522;-79
2024/02/20 01:03:14;;;;;;;121.10;80.30;;;;;;;;;;6312694;28;25710;-79
2024/02/20 01:06:16;;;;;;;122.00;79.90;;;;;;;;;;6315735;28;24808;-79
2024/02/20 01:09:18;;;;;;;121.20;80.03;;;;;;;;;;6314824;28;24492;-81
2024/02/20 01:12:19;;;;;;;118.88;77.28;;;;;;;;;;6314856;28;24421;-80
2024/02/20 01:15:22;;;;;;;118.30;77.27;;;;;;;;;;6313010;28;24486;-80
2024/02/20 01:18:23;;;;;;;120.40;80.60;;;;;;;;;;6316319;28;24414;-80
2024/02/20 01:21:25;;;;;;;115.43;76.18;;;;;;;;;;6314921;28;24410;-80
2024/02/20 01:24:26;;;;;;;115.07;76.75;;;;;;;;;;6315645;28;24431;-81
2024/02/20 01:27:28;;;;;;;113.25;75.50;;;;;;;;;;6315692;28;24433;-80
2024/02/20 01:30:31;;;;;;;116.13;75.07;;;;;;;;;;6311108;28;24785;-80
2024/02/20 01:33:32;;;;;;;110.00;73.88;;;;;;;;;;6312864;28;24442;-79
2024/02/20 01:36:34;;;;;;;112.30;72.75;;;;;;;;;;6311899;28;24504;-81
2024/02/20 01:39:35;;;;;;;109.70;72.95;;;;;;;;;;6312091;28;24423;-81
2024/02/20 01:42:37;;;;;;;109.18;72.55;;;;;;;;;;6313780;28;24426;-81
2024/02/20 01:45:40;;;;;;;113.43;74.63;;;;;;;;;;6311876;28;24425;-78
2024/02/20 01:48:41;;;;;;;116.17;74.60;;;;;;;;;;6311960;28;24445;-81
2024/02/20 01:51:43;;;;;;;113.70;75.13;;;;;;;;;;6312074;28;24595;-81
2024/02/20 01:54:45;;;;;;;115.32;76.85;;;;;;;;;;6315655;28;24441;-80
2024/02/20 01:57:47;;;;;;;117.68;77.75;;;;;;;;;;6312346;28;25139;-81
2024/02/20 02:00:50;;;;;;;119.47;77.15;;;;;;;;;;6313969;28;24417;-83
2024/02/20 02:03:51;;;;;;;121.05;79.88;;;;;;;;;;6310032;28;24426;-81
2024/02/20 02:06:53;;;;;;;120.35;78.60;;;;;;;;;;6314443;28;24465;-80
2024/02/20 02:09:54;;;;;;;125.30;82.18;;;;;;;;;;6314630;28;24438;-80
2024/02/20 02:12:56;;;;;;;117.40;79.70;;;;;;;;;;6313395;28;24615;-81
2024/02/20 02:15:58;;;;;;;120.70;78.72;;;;;;;;;;6317234;28;24410;-81
2024/02/20 02:19:00;;;;;;;118.18;78.85;;;;;;;;;;6317474;28;24429;-82
2024/02/20 02:22:01;;;;;;;124.88;83.28;;;;;;;;;;6318552;28;24855;-82
2024/02/20 02:25:06;;;;;;;126.15;83.57;;;;;;;;;;6316227;28;24454;-81
2024/02/20 02:28:09;;;;;;;119.03;80.03;;;;;;;;;;6316455;28;24426;-81
2024/02/20 02:31:11;;;;;;;124.10;82.73;;;;;;;;;;6316555;28;24461;-81
2024/02/20 02:34:27;;;;;;;119.57;80.22;;;;;;;;;;6320923;28;24423;-81
2024/02/20 02:37:29;;;;;;;124.22;81.30;;;;;;;;;;6311944;28;25493;-82
2024/02/20 02:40:30;;;;;;;119.25;78.13;;;;;;;;;;6319484;28;24414;-80
2024/02/20 02:43:33;;;;;;;116.40;77.32;;;;;;;;;;6320694;28;24861;-80
2024/02/20 02:46:34;;;;;;;112.03;75.57;;;;;;;;;;6314703;28;24410;-81
2024/02/20 02:49:36;;;;;;;113.13;74.77;;;;;;;;;;6316985;28;24421;-81
2024/02/20 02:52:38;;;;;;;124.10;81.40;;;;;;;;;;6315885;28;24402;-83
2024/02/20 02:55:39;;;;;;;118.43;79.35;;;;;;;;;;6319553;28;24480;-81
2024/02/20 02:58:42;;;;;;;110.97;73.67;;;;;;;;;;6319824;28;24773;-82
2024/02/20 03:01:44;;;;;;;110.63;72.50;;;;;;;;;;6319682;28;24406;-81
2024/02/20 03:04:45;;;;;;;113.35;75.65;;;;;;;;;;6316434;28;24410;-80
2024/02/20 03:07:48;;;;;;;117.25;76.60;;;;;;;;;;6318016;28;24418;-81
2024/02/20 03:10:49;;;;;;;114.93;75.65;;;;;;;;;;6316857;28;24876;-82
2024/02/20 03:13:52;;;;;;;117.03;76.47;;;;;;;;;;6316315;28;24413;-80
2024/02/20 03:16:54;;;;;;;121.45;77.82;;;;;;;;;;6316441;28;24417;-81
2024/02/20 03:19:56;;;;;;;116.15;77.20;;;;;;;;;;6316347;28;24417;-81
2024/02/20 03:22:58;;;;;;;115.93;75.80;;;;;;;;;;6316083;28;24421;-81
2024/02/20 03:26:01;;;;;;;113.83;75.90;;;;;;;;;;6317956;28;24415;-82
2024/02/20 03:29:03;;;;;;;112.15;75.88;;;;;;;;;;6316594;28;24455;-82
2024/02/20 03:32:06;;;;;;;119.85;80.05;;;;;;;;;;6315632;28;24419;-81
2024/02/20 03:35:10;;;;;;;124.18;79.53;;;;;;;;;;6317514;28;24825;-82
2024/02/20 03:38:12;;;;;;;119.07;77.03;;;;;;;;;;6318393;28;24472;-83
2024/02/20 03:41:13;;;;;;;116.55;75.45;;;;;;;;;;6315434;28;24414;-81
2024/02/20 03:44:16;;;;;;;116.80;75.75;;;;;;;;;;6315835;28;24644;-80
2024/02/20 03:47:18;;;;;;;112.53;74.25;;;;;;;;;;6316488;28;24665;-82
2024/02/20 03:50:19;;;;;;;112.35;72.35;;;;;;;;;;6313610;28;24423;-81
2024/02/20 03:53:20;;;;;;;110.83;70.87;;;;;;;;;;6314367;28;24742;-81
2024/02/20 03:56:22;;;;;;;111.78;70.97;;;;;;;;;;6317567;28;24418;-82
2024/02/20 03:59:25;;;;;;;117.15;73.25;;;;;;;;;;6319120;28;24417;-81
2024/02/20 04:02:26;;;;;;;111.97;71.00;;;;;;;;;;6315307;28;24407;-81
2024/02/20 04:05:28;;;;;;;113.43;71.65;;;;;;;;;;6317096;28;25739;-80
2024/02/20 04:08:29;;;;;;;107.05;68.20;;;;;;;;;;6316024;28;24423;-80
2024/02/20 04:11:31;;;;;;;108.88;69.97;;;;;;;;;;6313253;28;24430;-81
2024/02/20 04:14:34;;;;;;;113.32;69.80;;;;;;;;;;6319067;28;24429;-81
2024/02/20 04:17:35;;;;;;;108.20;67.43;;;;;;;;;;6315533;28;24423;-81
2024/02/20 04:20:37;;;;;;;106.07;67.47;;;;;;;;;;6318209;28;24429;-81
2024/02/20 04:23:38;;;;;;;111.40;72.10;;;;;;;;;;6313766;28;24497;-82
2024/02/20 04:26:40;;;;;;;108.45;69.45;;;;;;;;;;6317104;28;25125;-82
2024/02/20 04:29:43;;;;;;;105.28;67.43;;;;;;;;;;6314861;28;24442;-81
2024/02/20 04:32:44;;;;;;;104.43;67.93;;;;;;;;;;6315992;28;24410;-81
2024/02/20 04:35:46;;;;;;;111.20;71.75;;;;;;;;;;6314029;28;24426;-78
2024/02/20 04:38:49;;;;;;;110.15;70.45;;;;;;;;;;6315308;28;24453;-81
2024/02/20 04:41:51;;;;;;;104.93;66.68;;;;;;;;;;6315983;28;24545;-81
2024/02/20 04:44:53;;;;;;;104.00;66.32;;;;;;;;;;6312315;28;24434;-81
2024/02/20 04:47:55;;;;;;;102.70;65.20;;;;;;;;;;6313574;28;24437;-82
2024/02/20 04:50:56;;;;;;;102.87;66.27;;;;;;;;;;6315178;28;24809;-81
2024/02/20 04:53:58;;;;;;;105.03;67.45;;;;;;;;;;6314534;28;24422;-83
2024/02/20 04:56:59;;;;;;;103.45;66.53;;;;;;;;;;6314585;28;24418;-81
2024/02/20 05:00:05;;;;;;;106.45;68.72;;;;;;;;;;6316787;28;24666;-81
2024/02/20 05:03:06;;;;;;;105.05;66.47;;;;;;;;;;6312116;28;24454;-80
2024/02/20 05:06:08;;;;;;;104.88;67.70;;;;;;;;;;6317447;28;24429;-82
2024/02/20 05:09:11;;;;;;;107.05;67.03;;;;;;;;;;6316100;28;24465;-80
2024/02/20 05:12:12;;;;;;;110.07;70.17;;;;;;;;;;6316024;28;24437;-82
2024/02/20 05:15:15;;;;;;;104.13;68.75;;;;;;;;;;6316204;28;24426;-81
2024/02/20 05:18:16;;;;;;;105.70;68.37;;;;;;;;;;6319561;28;24433;-81
2024/02/20 05:21:18;;;;;;;105.80;67.63;;;;;;;;;;6310213;28;24429;-81
2024/02/20 05:24:19;;;;;;;106.60;68.72;;;;;;;;;;6314362;28;24430;-80
2024/02/20 05:27:21;;;;;;;107.97;68.03;;;;;;;;;;6311859;28;24610;-81
2024/02/20 05:30:24;;;;;;;111.97;69.22;;;;;;;;;;6317032;28;24500;-81
2024/02/20 05:33:25;;;;;;;111.07;70.18;;;;;;;;;;6314855;28;24437;-81
2024/02/20 05:36:29;;;;;;;105.47;68.13;;;;;;;;;;6315859;28;24426;-81
2024/02/20 05:39:30;;;;;;;103.93;67.40;;;;;;;;;;6315301;28;24429;-82
2024/02/20 05:42:32;;;;;;;104.75;68.03;;;;;;;;;;6319359;28;24414;-81
2024/02/20 05:45:35;;;;;;;101.00;65.23;;;;;;;;;;6315310;28;24643;-82
2024/02/20 05:48:36;;;;;;;106.93;67.18;;;;;;;;;;6313341;28;24429;-82
2024/02/20 05:51:38;;;;;;;103.82;66.13;;;;;;;;;;6315086;28;24461;-80
2024/02/20 05:54:39;;;;;;;110.67;69.83;;;;;;;;;;6317983;28;24786;-81
2024/02/20 05:57:41;;;;;;;108.80;69.75;;;;;;;;;;6319237;28;24411;-81
2024/02/20 06:00:43;;;;;;;106.45;69.75;;;;;;;;;;6318271;28;24429;-82
2024/02/20 06:03:45;;;;;;;106.78;68.60;;;;;;;;;;6318401;28;24441;-80
2024/02/20 06:06:47;;;;;;;109.57;69.15;;;;;;;;;;6322647;28;24426;-82
2024/02/20 06:09:48;;;;;;;106.60;66.43;;;;;;;;;;6321548;28;24433;-82
2024/02/20 06:12:50;;;;;;;104.40;67.93;;;;;;;;;;6318155;28;24879;-82
2024/02/20 06:15:53;;;;;;;114.32;71.35;;;;;;;;;;6318695;28;24430;-82
2024/02/20 06:18:54;;;;;;;112.97;71.00;;;;;;;;;;6320151;28;24422;-80
2024/02/20 06:21:55;;;;;;;108.40;69.13;;;;;;;;;;6319515;28;24430;-83
2024/02/20 06:24:57;;;;;;;109.43;67.40;;;;;;;;;;6317834;28;24981;-81
2024/02/20 06:27:58;;;;;;;111.93;68.07;;;;;;;;;;6319676;28;24429;-81
2024/02/20 06:31:03;;;;;;;108.28;67.03;;;;;;;;;;6315739;28;24430;-82
2024/02/20 06:34:07;;;;;;;105.15;67.57;;;;;;;;;;6319005;28;24445;-81
2024/02/20 06:37:08;;;;;;;109.40;67.82;;;;;;;;;;6317137;28;24453;-82
2024/02/20 06:40:10;;;;;;;111.15;70.05;;;;;;;;;;6318296;28;24515;-81
2024/02/20 06:43:11;;;;;;;109.40;68.65;;;;;;;;;;6318446;28;24449;-81
2024/02/20 06:46:14;;;;;;;110.68;69.30;;;;;;;;;;6317253;28;24441;-82
2024/02/20 06:49:16;;;;;;;112.68;70.00;;;;;;;;;;6318205;28;24626;-80
2024/02/20 06:52:17;;;;;;;107.38;66.93;;;;;;;;;;6317983;28;24450;-81
2024/02/20 06:55:19;;;;;;;115.95;70.65;;;;;;;;;;6319012;28;24425;-82
2024/02/20 06:58:20;;;;;;;108.27;69.87;;;;;;;;;;6315319;28;24725;-81
2024/02/20 07:01:23;;;;;;;108.45;68.82;;;;;;;;;;6317408;28;24841;-80
2024/02/20 07:04:24;;;;;;;108.05;67.60;;;;;;;;;;6313778;28;24460;-80
2024/02/20 07:07:26;;;;;;;103.45;67.05;;;;;;;;;;6316832;28;24425;-81
2024/02/20 07:10:27;;;;;;;110.53;69.28;;;;;;;;;;6317970;28;24443;-83
2024/02/20 07:13:29;;;;;;;109.72;68.50;;;;;;;;;;6321101;28;24422;-81
2024/02/20 07:16:32;;;;;;;106.20;66.50;;;;;;;;;;6315255;28;24415;-82
2024/02/20 07:19:33;;;;;;;101.57;65.07;;;;;;;;;;6316970;28;24407;-82
2024/02/20 07:22:35;;;;;;;100.57;65.23;;;;;;;;;;6316190;28;24430;-80
2024/02/20 07:25:36;;;;;;;100.57;66.28;;;;;;;;;;6318688;28;24413;-82
2024/02/20 07:28:38;;;;;;;100.07;64.03;;;;;;;;;;6314401;28;24634;-82
2024/02/20 07:31:41;;;;;;;97.35;64.60;;;;;;;;;;6314274;28;24477;-81
2024/02/20 07:34:43;;;;;;;98.25;64.03;;;;;;;;;;6320961;28;24413;-81
2024/02/20 07:37:45;;;;;;;95.68;64.00;;;;;;;;;;6317912;28;24427;-81
2024/02/20 07:40:47;;;;;;;92.85;61.83;;;;;;;;;;6321227;28;24422;-82
2024/02/20 07:43:48;;;;;;;95.13;61.22;;;;;;;;;;6315631;28;24421;-80
2024/02/20 07:46:51;;;;;;;93.15;60.97;;;;;;;;;;6318017;28;24406;-83
2024/02/20 07:49:53;;;;;;;94.53;62.28;;;;;;;;;;6318430;28;24532;-82
2024/02/20 07:52:54;;;;;;;97.63;64.47;;;;;;;;;;6315251;28;24852;-83
2024/02/20 07:55:55;;;;;;;94.47;63.20;;;;;;;;;;6315700;28;24426;-81
2024/02/20 07:58:57;;;;;;;93.63;62.70;;;;;;;;;;6316943;28;24445;-82
2024/02/20 08:02:04;;;;;;;98.03;65.13;;;;;;;;;;6319349;28;24423;-83
2024/02/20 08:05:05;;;;;;;91.90;62.28;;;;;;;;;;6316121;28;24615;-82
2024/02/20 08:08:07;;;;;;;90.95;61.47;;;;;;;;;;6318823;28;24670;-82
2024/02/20 08:11:09;;;;;;;85.60;59.60;;;;;;;;;;6317101;28;24430;-81
2024/02/20 08:14:10;;;;;;;88.55;60.03;;;;;;;;;;6316908;28;24656;-82
2024/02/20 08:17:13;;;;;;;88.95;60.13;;;;;;;;;;6313544;28;24415;-83
2024/02/20 08:20:14;;;;;;;89.22;60.80;;;;;;;;;;6314478;28;24816;-82
2024/02/20 08:23:16;;;;;;;83.90;57.00;;;;;;;;;;6317837;28;24609;-81
2024/02/20 08:26:17;;;;;;;79.70;55.60;;;;;;;;;;6315662;28;24444;-83
2024/02/20 08:29:19;;;;;;;83.30;57.55;;;;;;;;;;6316313;28;24833;-81
2024/02/20 08:32:21;;;;;;;82.88;57.75;;;;;;;;;;6316102;28;24617;-81
2024/02/20 08:35:23;;;;;;;89.32;61.55;;;;;;;;;;6314291;28;24415;-84
2024/02/20 08:38:24;;;;;;;95.40;66.17;;;;;;;;;;6317643;28;24429;-82
2024/02/20 08:41:26;;;;;;;93.38;65.55;;;;;;;;;;6315397;28;24410;-83
2024/02/20 08:44:27;;;;;;;105.40;73.05;;;;;;;;;;6318454;28;24427;-84
2024/02/20 08:47:30;;;;;;;96.35;67.60;;;;;;;;;;6318026;28;24429;-84
2024/02/20 08:50:32;;;;;;;87.53;60.90;;;;;;;;;;6317283;28;24499;-83
2024/02/20 08:53:33;;;;;;;86.60;60.20;;;;;;;;;;6313641;28;24410;-85
2024/02/20 08:56:34;;;;;;;88.90;63.47;;;;;;;;;;6317384;28;25215;-83
2024/02/20 08:59:36;;;;;;;78.30;55.88;;;;;;;;;;6314098;28;24507;-82
2024/02/20 09:02:39;;;;;;;74.35;53.10;;;;;;;;;;6315086;28;24616;-83
2024/02/20 09:05:40;;;;;;;69.07;50.03;;;;;;;;;;6316652;28;24521;-82
2024/02/20 09:08:42;;;;;;;76.65;54.90;;;;;;;;;;6317050;28;24422;-81
2024/02/20 09:11:43;;;;;;;77.28;54.70;;;;;;;;;;6312690;28;24426;-82
2024/02/20 09:14:45;;;;;;;75.75;54.65;;;;;;;;;;6314115;28;24418;-83
2024/02/20 09:17:47;;;;;;;84.72;60.40;;;;;;;;;;6316152;28;24425;-83
2024/02/20 09:20:49;;;;;;;75.30;53.60;;;;;;;;;;6313238;28;24490;-82
2024/02/20 09:23:50;;;;;;;79.13;57.22;;;;;;;;;;6317117;28;24421;-82
2024/02/20 09:26:52;;;;;;;81.55;59.15;;;;;;;;;;6316547;28;24421;-83
2024/02/20 09:29:53;;;;;;;90.30;63.73;;;;;;;;;;6311427;28;24524;-83
2024/02/20 09:32:56;;;;;;;79.75;58.20;;;;;;;;;;6313228;28;24415;-81
2024/02/20 09:35:58;;;;;;;76.15;54.83;;;;;;;;;;6312439;28;24663;-81
2024/02/20 09:39:03;;;;;;;84.30;59.97;;;;;;;;;;6318712;28;24423;-82
2024/02/20 09:42:06;;;;;;;89.97;63.70;;;;;;;;;;6313791;28;24485;-82
2024/02/20 09:45:10;;;;;;;80.73;58.47;;;;;;;;;;6313268;28;24410;-82
2024/02/20 09:48:14;;;;;;;88.35;61.97;;;;;;;;;;6315587;28;24480;-83
2024/02/20 09:51:18;;;;;;;84.93;62.60;;;;;;;;;;6314435;28;24510;-82
2024/02/20 09:54:20;;;;;;;82.22;59.65;;;;;;;;;;6316383;28;24426;-82
2024/02/20 09:57:22;;;;;;;96.53;66.53;;;;;;;;;;6312715;28;24828;-82
2024/02/20 10:00:24;;;;;;;84.03;60.40;;;;;;;;;;6314235;28;24410;-83
2024/02/20 10:03:28;;;;;;;88.00;62.83;;;;;;;;;;6312074;28;24442;-82
2024/02/20 10:06:30;;;;;;;79.23;59.50;;;;;;;;;;6313688;28;24421;-82
2024/02/20 10:09:32;;;;;;;75.68;57.03;;;;;;;;;;6316218;28;25003;-82
2024/02/20 10:12:36;;;;;;;78.90;58.83;;;;;;;;;;6311475;28;24876;-82
2024/02/20 10:15:37;;;;;;;76.15;55.17;;;;;;;;;;6312751;28;24476;-83
2024/02/20 10:18:41;;;;;;;79.57;59.43;;;;;;;;;;6314289;28;24430;-81
2024/02/20 10:21:51;;;;;;;75.10;56.10;;;;;;;;;;6312138;28;24419;-82
2024/02/20 10:25:02;;;;;;;78.93;59.70;;;;;;;;;;6311947;28;24567;-82
2024/02/20 10:28:05;;;;;;;89.25;68.22;;;;;;;;;;6312661;28;24610;-82
2024/02/20 10:31:06;;;;;;;91.37;70.83;;;;;;;;;;6314279;28;24422;-82
2024/02/20 10:34:09;;;;;;;85.15;64.15;;;;;;;;;;6313985;28;24612;-84
2024/02/20 10:37:10;;;;;;;82.47;64.72;;;;;;;;;;6314872;28;24806;-84
2024/02/20 10:40:13;;;;;;;84.00;63.45;;;;;;;;;;6318467;28;24437;-82
2024/02/20 10:43:15;;;;;;;76.70;58.38;;;;;;;;;;6318422;28;24414;-83
2024/02/20 10:46:17;;;;;;;82.63;63.30;;;;;;;;;;6317061;28;24430;-82
2024/02/20 10:49:21;;;;;;;85.65;65.82;;;;;;;;;;6315518;28;24426;-83
2024/02/20 10:52:22;;;;;;;81.15;60.67;;;;;;;;;;6317636;28;24444;-82
2024/02/20 10:55:24;;;;;;;78.38;58.50;;;;;;;;;;6321082;28;24626;-82
2024/02/20 10:58:27;;;;;;;79.63;59.38;;;;;;;;;;6319025;28;24468;-82
2024/02/20 11:01:29;;;;;;;69.68;50.88;;;;;;;;;;6319738;28;24406;-83
2024/02/20 11:04:32;;;;;;;69.50;51.72;;;;;;;;;;6316838;28;24422;-84
2024/02/20 11:07:34;;;;;;;71.63;53.87;;;;;;;;;;6314258;28;24419;-82
2024/02/20 11:10:35;;;;;;;72.88;54.85;;;;;;;;;;6313382;28;24430;-82
2024/02/20 11:13:37;;;;;;;70.78;51.53;;;;;;;;;;6318424;28;24420;-84
2024/02/20 11:16:40;;;;;;;69.03;51.28;;;;;;;;;;6317310;28;24414;-83
2024/02/20 11:19:43;;;;;;;61.95;45.38;;;;;;;;;;6316796;28;24488;-82
2024/02/20 11:22:44;;;;;;;69.10;49.33;;;;;;;;;;6318544;28;24417;-83
2024/02/20 11:25:46;;;;;;;63.67;46.08;;;;;;;;;;6317585;28;24418;-82
2024/02/20 11:28:47;;;;;;;62.60;44.45;;;;;;;;;;6317052;28;24411;-83
2024/02/20 11:31:50;;;;;;;63.95;46.13;;;;;;;;;;6316323;28;24419;-82
2024/02/20 11:34:53;;;;;;;63.65;46.33;;;;;;;;;;6317168;28;24452;-80
2024/02/20 11:37:55;;;;;;;59.10;45.15;;;;;;;;;;6317535;28;24417;-84
2024/02/20 11:40:57;;;;;;;64.00;46.45;;;;;;;;;;6316392;28;24855;-82
2024/02/20 11:44:03;;;;;;;53.15;40.22;;;;;;;;;;6317237;28;24507;-83
2024/02/20 11:47:05;;;;;;;54.58;39.97;;;;;;;;;;6318001;28;24452;-83
2024/02/20 11:50:08;;;;;;;46.95;36.38;;;;;;;;;;6316732;28;24423;-82
2024/02/20 11:53:10;;;;;;;42.00;32.47;;;;;;;;;;6314970;28;24917;-84
2024/02/20 11:56:14;;;;;;;45.45;35.33;;;;;;;;;;6313945;28;24813;-82
2024/02/20 11:59:16;;;;;;;50.10;38.08;;;;;;;;;;6315088;28;24422;-83
2024/02/20 12:02:18;;;;;;;47.20;35.85;;;;;;;;;;6318200;28;24649;-83
2024/02/20 12:05:24;;;;;;;54.25;41.60;;;;;;;;;;6313231;28;24625;-83
2024/02/20 12:08:31;;;;;;;49.77;38.40;;;;;;;;;;6316911;28;25282;-83
2024/02/20 12:11:33;;;;;;;50.45;38.15;;;;;;;;;;6317455;28;24840;-84
2024/02/20 12:14:34;;;;;;;46.05;35.42;;;;;;;;;;6317582;28;24441;-84
2024/02/20 12:17:39;;;;;;;37.88;29.10;;;;;;;;;;6318094;28;24453;-83
2024/02/20 12:20:41;;;;;;;40.10;30.80;;;;;;;;;;6317812;28;24450;-85
2024/02/20 12:23:51;;;;;;;90.60;62.45;;;;;;;;;;6318649;28;24429;-87
2024/02/20 12:26:52;;;;;;;67.07;48.30;;;;;;;;;;6322066;28;24429;-85
2024/02/20 12:29:54;;;;;;;57.28;41.70;;;;;;;;;;6316680;28;24421;-86
2024/02/20 12:32:55;;;;;;;74.20;51.13;;;;;;;;;;6316507;28;24434;-86
2024/02/20 12:35:58;;;;;;;54.42;40.38;;;;;;;;;;6318155;28;24444;-85
2024/02/20 12:39:01;;;;;;;57.97;41.70;;;;;;;;;;6315639;28;24540;-85
2024/02/20 12:42:03;;;;;;;62.65;44.78;;;;;;;;;;6314341;28;24669;-86
2024/02/20 12:45:05;;;;;;;51.05;38.83;;;;;;;;;;6318908;28;25185;-84
2024/02/20 12:48:07;;;;;;;53.22;41.15;;;;;;;;;;6317726;28;24418;-86
2024/02/20 12:51:11;;;;;;;58.55;45.10;;;;;;;;;;6318044;28;24426;-81
2024/02/20 12:54:12;;;;;;;51.05;40.22;;;;;;;;;;6314161;28;24472;-85
2024/02/20 12:57:14;;;;;;;47.17;36.47;;;;;;;;;;6318466;28;24426;-84
2024/02/20 13:00:15;;;;;;;47.38;37.13;;;;;;;;;;6314313;28;24418;-82
2024/02/20 13:03:16;;;;;;;50.03;38.15;;;;;;;;;;6313389;28;24853;-83
2024/02/20 13:06:20;;;;;;;54.22;41.13;;;;;;;;;;6309981;28;24429;-82
2024/02/20 13:09:22;;;;;;;57.28;41.75;;;;;;;;;;6312562;28;24421;-83
2024/02/20 13:12:25;;;;;;;50.75;39.80;;;;;;;;;;6316359;28;24452;-84
2024/02/20 13:15:27;;;;;;;43.80;34.50;;;;;;;;;;6313962;28;25087;-83
2024/02/20 13:18:28;;;;;;;45.43;36.13;;;;;;;;;;6316119;28;24522;-83
2024/02/20 13:21:31;;;;;;;49.58;36.92;;;;;;;;;;6316274;28;24426;-84
2024/02/20 13:24:33;;;;;;;39.88;31.70;;;;;;;;;;6310370;28;24509;-83
2024/02/20 13:27:34;;;;;;;50.58;39.00;;;;;;;;;;6318338;28;24422;-84
2024/02/20 13:30:36;;;;;;;45.30;36.60;;;;;;;;;;6316236;28;24426;-84
2024/02/20 13:33:38;;;;;;;45.83;35.97;;;;;;;;;;6313000;28;25350;-84
2024/02/20 13:36:41;;;;;;;52.13;38.97;;;;;;;;;;6314223;28;24423;-82
2024/02/20 13:39:43;;;;;;;44.70;35.70;;;;;;;;;;6313571;28;24548;-84
2024/02/20 13:42:44;;;;;;;49.10;37.70;;;;;;;;;;6317224;28;24417;-84
2024/02/20 13:45:46;;;;;;;40.42;31.92;;;;;;;;;;6310972;28;24802;-82
2024/02/20 13:48:48;;;;;;;46.63;36.63;;;;;;;;;;6313259;28;24421;-88
2024/02/20 13:51:51;;;;;;;56.85;42.70;;;;;;;;;;6318314;28;24650;-86
2024/02/20 13:54:53;;;;;;;51.53;40.57;;;;;;;;;;6318685;28;24451;-87
2024/02/20 13:57:54;;;;;;;54.13;43.10;;;;;;;;;;6315377;28;24613;-82
2024/02/20 14:00:55;;;;;;;49.40;37.65;;;;;;;;;;6315918;28;24426;-84
2024/02/20 14:03:57;;;;;;;46.72;36.10;;;;;;;;;;6312931;28;24480;-85
2024/02/20 14:07:00;;;;;;;53.92;40.92;;;;;;;;;;6315990;28;24423;-82
2024/02/20 14:10:02;;;;;;;55.42;40.55;;;;;;;;;;6312350;28;24415;-83
2024/02/20 14:13:05;;;;;;;49.58;37.60;;;;;;;;;;6318923;28;24449;-83
2024/02/20 14:16:08;;;;;;;45.00;33.15;;;;;;;;;;6319169;28;24407;-83
2024/02/20 14:19:09;;;;;;;60.67;46.28;;;;;;;;;;6316487;28;24618;-83
2024/02/20 14:22:13;;;;;;;46.83;36.30;;;;;;;;;;6318102;28;24530;-83
2024/02/20 14:25:16;;;;;;;45.53;34.22;;;;;;;;;;6318726;28;24445;-83
2024/02/20 14:28:17;;;;;;;50.67;38.58;;;;;;;;;;6318306;28;24457;-83
2024/02/20 14:31:19;;;;;;;54.28;40.28;;;;;;;;;;6319055;28;24618;-83
2024/02/20 14:34:20;;;;;;;56.20;41.72;;;;;;;;;;6322054;28;24523;-80
2024/02/20 14:37:23;;;;;;;59.08;43.67;;;;;;;;;;6319027;28;24419;-83
2024/02/20 14:40:24;;;;;;;53.50;40.13;;;;;;;;;;6320384;28;24443;-82
2024/02/20 14:43:26;;;;;;;53.03;40.92;;;;;;;;;;6318270;28;24429;-83
2024/02/20 14:46:27;;;;;;;48.00;36.00;;;;;;;;;;6323533;28;24418;-83
2024/02/20 14:49:30;;;;;;;56.60;41.25;;;;;;;;;;6317975;28;24409;-83
2024/02/20 14:52:33;;;;;;;51.08;37.33;;;;;;;;;;6317956;28;24793;-83
2024/02/20 14:55:35;;;;;;;60.63;44.47;;;;;;;;;;6316820;28;24413;-84
2024/02/20 14:58:36;;;;;;;57.08;42.00;;;;;;;;;;6318407;28;24589;-82
2024/02/20 15:01:38;;;;;;;56.35;41.65;;;;;;;;;;6319040;28;24418;-82
2024/02/20 15:04:41;;;;;;;52.88;40.05;;;;;;;;;;6315889;28;24533;-84
2024/02/20 15:07:44;;;;;;;54.10;40.75;;;;;;;;;;6315679;28;24471;-83
2024/02/20 15:10:45;;;;;;;46.47;34.77;;;;;;;;;;6315699;28;24474;-82
2024/02/20 15:13:46;;;;;;;51.92;39.03;;;;;;;;;;6318398;28;24422;-84
2024/02/20 15:16:48;;;;;;;57.67;43.00;;;;;;;;;;6317383;28;24446;-83
2024/02/20 15:19:50;;;;;;;68.75;50.65;;;;;;;;;;6317451;28;24481;-86
2024/02/20 15:22:53;;;;;;;69.57;48.65;;;;;;;;;;6318170;28;24406;-86
2024/02/20 15:25:56;;;;;;;68.60;48.65;;;;;;;;;;6319524;28;24419;-85
2024/02/20 15:28:58;;;;;;;98.00;64.55;;;;;;;;;;6318390;28;24465;-88
2024/02/20 15:31:59;;;;;;;61.17;42.50;;;;;;;;;;6319653;28;24420;-85
2024/02/20 15:35:01;;;;;;;72.20;50.20;;;;;;;;;;6318511;28;24461;-87
2024/02/20 15:38:04;;;;;;;70.78;49.72;;;;;;;;;;6314310;28;24418;-86
2024/02/20 15:41:05;;;;;;;62.10;43.65;;;;;;;;;;6319548;28;24425;-83
2024/02/20 15:44:08;;;;;;;49.67;36.03;;;;;;;;;;6317504;28;24879;-82
2024/02/20 15:47:09;;;;;;;54.38;39.08;;;;;;;;;;6315782;28;24453;-83
2024/02/20 15:50:10;;;;;;;51.83;37.28;;;;;;;;;;6315304;28;24781;-82
2024/02/20 15:53:14;;;;;;;61.35;43.65;;;;;;;;;;6317730;28;24609;-82
2024/02/20 15:56:20;;;;;;;55.30;39.70;;;;;;;;;;6313389;28;24455;-83
2024/02/20 15:59:22;;;;;;;54.00;38.87;;;;;;;;;;6314106;28;24514;-81
2024/02/20 16:02:24;;;;;;;60.28;40.95;;;;;;;;;;6313532;28;24819;-82
2024/02/20 16:05:25;;;;;;;57.85;39.13;;;;;;;;;;6310742;28;24825;-83
2024/02/20 16:08:28;;;;;;;63.35;44.17;;;;;;;;;;6312004;28;24414;-83
2024/02/20 16:11:29;;;;;;;56.45;40.17;;;;;;;;;;6313326;28;24430;-82
2024/02/20 16:14:31;;;;;;;60.17;41.37;;;;;;;;;;6317042;28;24474;-82
2024/02/20 16:17:37;;;;;;;62.10;42.72;;;;;;;;;;6312234;28;24411;-83
2024/02/20 16:20:38;;;;;;;61.90;42.97;;;;;;;;;;6316324;28;25217;-82
2024/02/20 16:23:41;;;;;;;60.00;40.97;;;;;;;;;;6317515;28;24407;-82
2024/02/20 16:26:44;;;;;;;61.83;42.28;;;;;;;;;;6314136;28;24432;-81
2024/02/20 16:29:48;;;;;;;57.20;39.35;;;;;;;;;;6317577;28;25200;-81
2024/02/20 16:32:50;;;;;;;57.97;40.03;;;;;;;;;;6316337;28;24438;-81
2024/02/20 16:35:52;;;;;;;63.72;42.53;;;;;;;;;;6315003;28;24419;-82
2024/02/20 16:38:55;;;;;;;63.70;43.10;;;;;;;;;;6315534;28;24837;-82
2024/02/20 16:41:56;;;;;;;61.10;41.08;;;;;;;;;;6316490;28;24465;-82
2024/02/20 16:44:58;;;;;;;60.33;40.73;;;;;;;;;;6312943;28;24437;-82
2024/02/20 16:47:59;;;;;;;66.05;42.97;;;;;;;;;;6316052;28;24627;-83
2024/02/20 16:51:00;;;;;;;64.85;42.55;;;;;;;;;;6313743;28;24422;-81
2024/02/20 16:54:03;;;;;;;61.20;41.25;;;;;;;;;;6309919;28;24418;-82
2024/02/20 16:57:10;;;;;;;63.15;41.25;;;;;;;;;;6315456;28;24415;-85
2024/02/20 17:00:12;;;;;;;60.85;40.63;;;;;;;;;;6316100;28;24426;-83
2024/02/20 17:03:13;;;;;;;61.13;40.43;;;;;;;;;;6316313;28;24434;-83
2024/02/20 17:06:14;;;;;;;59.53;38.78;;;;;;;;;;6315617;28;24445;-82
2024/02/20 17:09:17;;;;;;;56.78;39.83;;;;;;;;;;6312453;28;24422;-83
2024/02/20 17:12:19;;;;;;;62.47;42.17;;;;;;;;;;6315974;28;24591;-83
2024/02/20 17:15:20;;;;;;;60.42;39.88;;;;;;;;;;6309648;28;24429;-82
2024/02/20 17:18:22;;;;;;;63.33;41.77;;;;;;;;;;6310991;28;24952;-84
2024/02/20 17:21:26;;;;;;;65.57;41.35;;;;;;;;;;6313811;28;24430;-83
2024/02/20 17:24:29;;;;;;;73.88;47.22;;;;;;;;;;6312398;28;24427;-82
2024/02/20 17:27:30;;;;;;;65.07;42.65;;;;;;;;;;6318076;28;24419;-83
2024/02/20 17:30:32;;;;;;;65.13;42.73;;;;;;;;;;6313123;28;24896;-84
2024/02/20 17:33:35;;;;;;;71.00;44.45;;;;;;;;;;6312603;28;24879;-84